Time;durP1;ratioP1;P1;durP2;ratioP2;P2;SDS_P1;SDS_P2;PMS_P1;PMS_P2;Temp;Humidity;BMP_temperature;BMP_pressure;BME280_temperature;BME280_humidity;BME280_pressure;Samples;Min_cycle;Max_cycle;Signal;HPM_P1;HPM_P2
2022/09/24 00:01:20;;;;;;;;;;;;;;;19.84;66.59;97332.65;545178;259;68780;-74
2022/09/24 00:03:51;;;;;;;;;;;;;;;19.84;66.10;97329.98;545690;259;65127;-74
2022/09/24 00:06:19;;;;;;;;;;;;;;;19.84;66.04;97326.52;545669;260;66746;-74
2022/09/24 00:08:47;;;;;;;;;;;;;;;19.84;66.42;97327.31;545679;259;66742;-73
2022/09/24 00:11:16;;;;;;;;;;;;;;;19.84;66.23;97323.85;545700;259;65076;-73
2022/09/24 00:13:44;;;;;;;;;;;;;;;19.84;66.59;97321.18;545700;259;68924;-73
2022/09/24 00:16:12;;;;;;;;;;;;;;;19.84;66.45;97321.18;545709;259;68852;-73
2022/09/24 00:18:41;;;;;;;;;;;;;;;19.85;66.02;97314.78;545731;258;65374;-74
2022/09/24 00:21:15;;;;;;;;;;;;;;;19.83;66.26;97319.55;545645;257;66927;-74
2022/09/24 00:23:43;;;;;;;;;;;;;;;19.82;66.23;97313.42;545762;259;68580;-74
2022/09/24 00:28:57;;;;;;;;;;;;;;;19.83;66.53;97309.69;545783;259;66717;-74
2022/09/24 00:31:25;;;;;;;;;;;;;;;19.82;65.99;97309.95;545947;259;66533;-74
2022/09/24 00:33:53;;;;;;;;;;;;;;;19.82;66.60;97313.42;545681;257;62859;-74
2022/09/24 00:36:22;;;;;;;;;;;;;;;19.82;66.34;97304.63;545640;260;66452;-74
2022/09/24 00:38:53;;;;;;;;;;;;;;;19.82;66.47;97304.63;545719;259;66967;-73
2022/09/24 00:41:22;;;;;;;;;;;;;;;19.81;66.24;97308.36;545705;259;62857;-73
2022/09/24 00:43:50;;;;;;;;;;;;;;;19.81;66.73;97303.83;545738;259;68890;-74
2022/09/24 00:46:25;;;;;;;;;;;;;;;19.81;66.92;97311.03;545670;259;68712;-73
2022/09/24 00:48:54;;;;;;;;;;;;;;;19.81;66.68;97308.36;545639;259;63224;-73
2022/09/24 00:51:23;;;;;;;;;;;;;;;19.81;66.31;97306.49;545190;254;68985;-74
2022/09/24 00:53:52;;;;;;;;;;;;;;;19.80;66.02;97301.41;545781;259;68650;-73
2022/09/24 00:56:20;;;;;;;;;;;;;;;19.80;65.98;97310.20;545719;259;65156;-73
2022/09/24 00:58:51;;;;;;;;;;;;;;;19.80;66.58;97307.53;545707;259;65965;-73
2022/09/24 01:01:20;;;;;;;;;;;;;;;19.80;66.58;97310.20;545786;259;68553;-73
2022/09/24 01:03:49;;;;;;;;;;;;;;;19.79;66.86;97297.94;545783;259;62846;-73
2022/09/24 01:06:16;;;;;;;;;;;;;;;19.79;67.14;97303.27;545704;259;68912;-74
2022/09/24 01:08:45;;;;;;;;;;;;;;;19.79;68.08;97299.80;545757;257;68721;-73
2022/09/24 01:11:32;;;;;;;;;;;;;;;19.78;67.17;97303.52;545801;260;63148;-73
2022/09/24 01:14:02;;;;;;;;;;;;;;;19.77;68.26;97302.72;545630;257;68607;-73
2022/09/24 01:16:34;;;;;;;;;;;;;;;19.78;68.04;97300.84;545804;260;66552;-73
2022/09/24 01:19:20;;;;;;;;;;;;;;;19.77;67.96;97307.25;545724;259;65301;-73
2022/09/24 01:21:49;;;;;;;;;;;;;;;19.77;68.75;97308.05;545802;260;68892;-73
2022/09/24 01:24:23;;;;;;;;;;;;;;;19.77;68.63;97301.92;545777;260;66954;-73
2022/09/24 01:26:52;;;;;;;;;;;;;;;19.76;68.53;97301.13;545671;260;65325;-74
2022/09/24 01:29:21;;;;;;;;;;;;;;;19.76;67.84;97301.13;545767;257;66704;-73
2022/09/24 01:31:50;;;;;;;;;;;;;;;19.76;67.90;97297.66;545741;259;68563;-73
2022/09/24 01:34:19;;;;;;;;;;;;;;;19.76;68.65;97301.13;545729;259;63089;-73
2022/09/24 01:36:48;;;;;;;;;;;;;;;19.74;67.95;97304.03;545784;260;66428;-73
2022/09/24 01:39:18;;;;;;;;;;;;;;;19.74;68.19;97309.36;545772;260;68770;-73
2022/09/24 01:41:46;;;;;;;;;;;;;;;19.74;67.31;97304.03;545789;260;63054;-73
2022/09/24 01:44:14;;;;;;;;;;;;;;;19.75;68.31;97302.16;545765;260;68897;-74
2022/09/24 01:46:42;;;;;;;;;;;;;;;19.76;68.46;97305.66;545787;260;68650;-74
2022/09/24 01:49:10;;;;;;;;;;;;;;;19.75;68.78;97312.83;545787;260;63363;-73
2022/09/24 01:51:40;;;;;;;;;;;;;;;19.73;68.28;97307.77;545774;260;66880;-73
2022/09/24 01:54:13;;;;;;;;;;;;;;;19.73;68.09;97306.97;545754;260;69232;-73
2022/09/24 01:56:42;;;;;;;;;;;;;;;19.73;68.19;97297.09;544721;260;63121;-73
2022/09/24 01:59:27;;;;;;;;;;;;;;;19.74;68.00;97305.90;545756;260;66590;-73
2022/09/24 02:01:59;;;;;;;;;;;;;;;19.73;67.67;97298.97;545792;257;68985;-74
2022/09/24 02:04:28;;;;;;;;;;;;;;;19.73;67.53;97296.30;544999;259;63241;-73
2022/09/24 02:06:56;;;;;;;;;;;;;;;19.72;67.80;97295.50;548100;259;68896;-74
2022/09/24 02:09:32;;;;;;;;;;;;;;;19.73;68.06;97297.09;546078;259;66412;-73
2022/09/24 02:12:01;;;;;;;;;;;;;;;19.72;67.81;97295.50;545864;259;63037;-73
2022/09/24 02:14:30;;;;;;;;;;;;;;;19.73;67.98;97294.43;545799;259;68386;-74
2022/09/24 02:16:58;;;;;;;;;;;;;;;19.72;68.26;97290.17;545898;259;68756;-74
2022/09/24 02:19:27;;;;;;;;;;;;;;;19.73;68.18;97296.30;546058;259;65585;-73
2022/09/24 02:21:55;;;;;;;;;;;;;;;19.71;67.45;97299.20;545890;259;68797;-73
2022/09/24 02:24:24;;;;;;;;;;;;;;;19.71;68.63;97296.55;545759;259;66365;-74
2022/09/24 02:26:51;;;;;;;;;;;;;;;19.71;68.01;97312.55;545938;259;71194;-73
2022/09/24 02:29:19;;;;;;;;;;;;;;;19.71;68.43;97307.20;545803;257;66492;-74
2022/09/24 02:31:48;;;;;;;;;;;;;;;19.71;67.61;97307.20;545838;259;66625;-73
2022/09/24 02:34:20;;;;;;;;;;;;;;;19.70;68.27;97313.61;545818;259;63007;-74
2022/09/24 02:39:58;;;;;;;;;;;;;;;19.70;68.28;97307.48;545789;258;68593;-74
2022/09/24 02:42:26;;;;;;;;;;;;;;;19.70;68.08;97310.95;545772;260;63206;-73
2022/09/24 02:44:56;;;;;;;;;;;;;;;19.70;68.12;97308.28;545738;260;68437;-74
2022/09/24 02:47:23;;;;;;;;;;;;;;;19.70;68.66;97318.95;545633;260;66507;-73
2022/09/24 02:49:50;;;;;;;;;;;;;;;19.69;68.15;97311.19;545771;260;62944;-74
2022/09/24 02:52:18;;;;;;;;;;;;;;;19.69;68.28;97311.98;545979;259;68567;-73
2022/09/24 02:54:46;;;;;;;;;;;;;;;19.69;67.17;97311.98;545884;259;68790;-73
2022/09/24 02:57:13;;;;;;;;;;;;;;;19.68;67.88;97310.39;545920;259;65055;-73
2022/09/24 02:59:41;;;;;;;;;;;;;;;19.69;67.84;97317.32;545868;260;67944;-73
2022/09/24 03:02:08;;;;;;;;;;;;;;;19.69;68.03;97321.85;545928;259;68233;-73
2022/09/24 03:04:36;;;;;;;;;;;;;;;19.68;67.38;97321.05;545847;259;63152;-73
2022/09/24 03:07:03;;;;;;;;;;;;;;;19.69;67.11;97319.98;545774;259;66422;-73
2022/09/24 03:09:31;;;;;;;;;;;;;;;19.67;66.69;97316.79;545786;257;68817;-73
2022/09/24 03:11:59;;;;;;;;;;;;;;;19.68;67.13;97326.39;545852;257;65257;-73
2022/09/24 03:14:27;;;;;;;;;;;;;;;19.67;66.69;97319.45;545816;260;66495;-73
2022/09/24 03:16:55;;;;;;;;;;;;;;;19.67;66.74;97319.45;545814;260;68718;-73
2022/09/24 03:19:22;;;;;;;;;;;;;;;19.68;66.56;97320.25;546795;259;63155;-74
2022/09/24 03:21:50;;;;;;;;;;;;;;;19.67;67.54;97323.96;545956;260;66472;-73
2022/09/24 03:24:17;;;;;;;;;;;;;;;19.67;68.65;97319.45;545933;260;66299;-73
2022/09/24 03:26:45;;;;;;;;;;;;;;;19.68;71.26;97321.05;545961;260;63902;-73
2022/09/24 03:29:12;;;;;;;;;;;;;;;19.66;69.30;97320.50;545952;260;66224;-73
2022/09/24 03:31:40;;;;;;;;;;;;;;;19.65;70.04;97321.53;545803;260;68552;-73
2022/09/24 03:34:07;;;;;;;;;;;;;;;19.66;70.88;97325.83;545808;260;65584;-73
2022/09/24 03:36:35;;;;;;;;;;;;;;;19.64;70.04;97325.27;545810;260;68850;-73
2022/09/24 03:39:02;;;;;;;;;;;;;;;19.65;70.81;97321.53;545794;260;66541;-73
2022/09/24 03:41:32;;;;;;;;;;;;;;;19.65;70.27;97331.41;545810;257;65011;-74
2022/09/24 03:44:00;;;;;;;;;;;;;;;19.64;70.50;97327.94;545822;260;66397;-73
2022/09/24 03:46:28;;;;;;;;;;;;;;;19.63;70.14;97330.84;545821;260;68553;-73
2022/09/24 03:48:58;;;;;;;;;;;;;;;19.63;69.86;97331.64;545821;260;63143;-73
2022/09/24 03:51:25;;;;;;;;;;;;;;;19.64;70.90;97330.60;545828;260;68276;-73
2022/09/24 03:53:53;;;;;;;;;;;;;;;19.63;71.09;97339.64;545811;260;66440;-73
2022/09/24 03:56:20;;;;;;;;;;;;;;;19.63;71.49;97339.64;545817;260;65145;-73
2022/09/24 03:58:48;;;;;;;;;;;;;;;19.62;70.83;97340.71;545794;260;68458;-74
2022/09/24 04:01:19;;;;;;;;;;;;;;;19.62;69.93;97340.71;545816;260;66684;-73
2022/09/24 04:03:47;;;;;;;;;;;;;;;19.62;70.38;97346.05;545793;260;62945;-74
2022/09/24 04:06:15;;;;;;;;;;;;;;;19.61;70.22;97341.75;545765;260;66224;-74
2022/09/24 04:08:42;;;;;;;;;;;;;;;19.62;71.75;97353.24;545913;256;66667;-74
2022/09/24 04:11:10;;;;;;;;;;;;;;;19.62;71.34;97348.71;545822;260;65219;-73
2022/09/24 04:13:37;;;;;;;;;;;;;;;19.61;70.40;97357.75;545784;257;66442;-73
2022/09/24 04:16:05;;;;;;;;;;;;;;;19.60;70.02;97347.35;545783;260;66299;-74
2022/09/24 04:18:32;;;;;;;;;;;;;;;19.61;71.27;97355.08;545780;257;63239;-74
2022/09/24 04:21:00;;;;;;;;;;;;;;;19.60;69.26;97361.48;545770;260;68612;-74
2022/09/24 04:23:30;;;;;;;;;;;;;;;19.61;71.49;97363.08;545733;260;68826;-73
2022/09/24 04:26:00;;;;;;;;;;;;;;;19.59;69.20;97364.39;545805;260;64978;-73
2022/09/24 04:28:26;;;;;;;;;;;;;;;19.59;70.31;97367.88;545733;259;68703;-73
2022/09/24 04:30:54;;;;;;;;;;;;;;;19.59;71.57;97367.88;545767;260;68476;-73
2022/09/24 04:33:22;;;;;;;;;;;;;;;19.59;70.38;97377.72;545771;260;62944;-74
2022/09/24 04:35:49;;;;;;;;;;;;;;;19.59;70.59;97378.55;545760;257;66228;-73
2022/09/24 04:38:18;;;;;;;;;;;;;;;19.59;69.56;97380.38;545801;257;66547;-73
2022/09/24 04:40:46;;;;;;;;;;;;;;;19.59;71.67;97378.55;545800;260;65083;-73
2022/09/24 04:43:16;;;;;;;;;;;;;;;19.59;70.24;97375.05;545786;260;68304;-73
2022/09/24 04:45:44;;;;;;;;;;;;;;;19.58;69.77;97379.58;545767;260;68553;-73
2022/09/24 04:48:12;;;;;;;;;;;;;;;19.59;71.04;97378.55;545765;260;65156;-73
2022/09/24 04:50:40;;;;;;;;;;;;;;;19.57;69.63;97377.19;545806;260;68842;-73
2022/09/24 04:53:07;;;;;;;;;;;;;;;19.57;70.71;97377.98;545797;260;66511;-73
2022/09/24 04:55:35;;;;;;;;;;;;;;;19.58;70.60;97381.45;545781;260;63145;-74
2022/09/24 04:58:03;;;;;;;;;;;;;;;19.57;70.27;97380.66;545757;260;68506;-73
2022/09/24 05:00:32;;;;;;;;;;;;;;;19.58;71.42;97384.92;545762;260;66385;-73
2022/09/24 05:03:02;;;;;;;;;;;;;;;19.57;71.21;97385.19;545846;256;65154;-73
2022/09/24 05:05:30;;;;;;;;;;;;;;;19.57;71.99;97385.19;545831;260;66138;-74
2022/09/24 05:07:58;;;;;;;;;;;;;;;19.56;70.85;97379.05;545806;257;68240;-74
2022/09/24 05:10:26;;;;;;;;;;;;;;;19.57;71.58;97385.98;545788;256;65147;-74
2022/09/24 05:12:53;;;;;;;;;;;;;;;19.55;69.81;97374.77;545732;260;68399;-74
2022/09/24 05:15:21;;;;;;;;;;;;;;;19.55;71.08;97380.09;545791;260;66036;-74
2022/09/24 05:17:49;;;;;;;;;;;;;;;19.55;70.18;97385.42;545834;260;62797;-74
2022/09/24 05:20:16;;;;;;;;;;;;;;;19.56;71.35;97384.39;545773;260;65949;-74
2022/09/24 05:22:48;;;;;;;;;;;;;;;19.55;70.90;97385.42;545791;260;68164;-74
2022/09/24 05:25:17;;;;;;;;;;;;;;;19.56;72.06;97379.05;545769;260;63200;-73
2022/09/24 05:27:47;;;;;;;;;;;;;;;19.55;71.84;97379.30;545767;260;68179;-73
2022/09/24 05:30:16;;;;;;;;;;;;;;;19.55;72.63;97376.63;545815;260;68230;-73
2022/09/24 05:32:43;;;;;;;;;;;;;;;19.55;71.75;97373.97;545779;260;65624;-73
2022/09/24 05:35:12;;;;;;;;;;;;;;;19.54;70.16;97377.70;545768;260;66411;-74
2022/09/24 05:37:42;;;;;;;;;;;;;;;19.54;70.30;97381.16;545777;260;49860;-73
2022/09/24 05:43:01;;;;;;;;;;;;;;;19.53;71.47;97376.87;545732;260;68644;-74
2022/09/24 05:45:31;;;;;;;;;;;;;;;19.52;67.71;97377.94;545833;260;55658;-74
2022/09/24 05:48:01;;;;;;;;;;;;;;;19.52;68.41;97377.94;545704;260;63206;-74
2022/09/24 05:50:29;;;;;;;;;;;;;;;19.53;70.12;97379.53;545596;260;66532;-74
2022/09/24 05:52:57;;;;;;;;;;;;;;;19.52;71.47;97375.27;545748;260;68718;-74
2022/09/24 05:55:25;;;;;;;;;;;;;;;19.50;68.94;97375.51;545796;260;65102;-74
2022/09/24 05:57:52;;;;;;;;;;;;;;;19.50;69.66;97377.38;546640;256;68283;-73
2022/09/24 06:00:20;;;;;;;;;;;;;;;19.50;70.13;97377.38;545963;259;68678;-74
2022/09/24 06:02:52;;;;;;;;;;;;;;;19.49;70.14;97373.91;545872;260;65157;-74
2022/09/24 06:05:17;;;;;;;;;;;;;;;19.49;69.58;97375.78;546009;259;68848;-75
2022/09/24 06:07:44;;;;;;;;;;;;;;;19.49;69.59;97378.44;546406;259;68554;-75
2022/09/24 06:10:12;;;;;;;;;;;;;;;19.48;68.33;97374.18;545672;260;65080;-73
2022/09/24 06:12:40;;;;;;;;;;;;;;;19.48;70.27;97374.98;545645;260;68536;-73
2022/09/24 06:15:08;;;;;;;;;;;;;;;19.47;67.37;97375.22;545791;259;66646;-74
2022/09/24 06:17:40;;;;;;;;;;;;;;;19.48;70.95;97380.31;545626;259;65176;-74
2022/09/24 06:20:23;;;;;;;;;;;;;;;19.49;71.97;97389.11;545635;257;68951;-73
2022/09/24 06:22:52;;;;;;;;;;;;;;;19.46;69.58;97379.75;545636;259;66740;-73
2022/09/24 06:25:19;;;;;;;;;;;;;;;19.48;70.54;97387.50;545687;257;65140;-74
2022/09/24 06:27:49;;;;;;;;;;;;;;;19.47;68.67;97389.34;545651;257;66550;-73
2022/09/24 06:30:16;;;;;;;;;;;;;;;19.48;71.20;97393.64;545552;256;68809;-74
2022/09/24 06:32:45;;;;;;;;;;;;;;;19.48;69.96;97387.50;545701;259;65009;-74
2022/09/24 06:35:13;;;;;;;;;;;;;;;19.48;69.73;97388.30;545631;259;66619;-74
2022/09/24 06:37:40;;;;;;;;;;;;;;;19.48;69.02;97387.50;545680;257;66896;-74
2022/09/24 06:40:09;;;;;;;;;;;;;;;19.50;71.69;97388.84;545934;259;63014;-74
2022/09/24 06:42:37;;;;;;;;;;;;;;;19.49;69.43;97387.23;545621;259;68886;-74
2022/09/24 06:45:06;;;;;;;;;;;;;;;19.51;71.38;97389.67;545618;259;68740;-74
2022/09/24 06:47:34;;;;;;;;;;;;;;;19.50;70.22;97388.04;545592;259;65215;-74
2022/09/24 06:50:01;;;;;;;;;;;;;;;19.49;69.64;97386.44;545639;259;68858;-74
2022/09/24 06:52:29;;;;;;;;;;;;;;;19.51;72.01;97393.13;545686;259;66908;-73
2022/09/24 06:54:57;;;;;;;;;;;;;;;19.52;72.06;97391.27;545647;259;65301;-73
2022/09/24 06:57:24;;;;;;;;;;;;;;;19.51;72.35;97387.00;545685;259;68955;-73
2022/09/24 06:59:52;;;;;;;;;;;;;;;19.52;72.61;97391.27;545679;259;66694;-73
2022/09/24 07:02:19;;;;;;;;;;;;;;;19.50;70.16;97391.50;545731;258;63210;-73
2022/09/24 07:04:47;;;;;;;;;;;;;;;19.52;72.00;97388.59;545655;260;68773;-73
2022/09/24 07:07:31;;;;;;;;;;;;;;;19.53;72.45;97390.20;545592;260;68761;-73
2022/09/24 07:10:00;;;;;;;;;;;;;;;19.52;72.65;97396.59;545652;257;63141;-73
2022/09/24 07:12:28;;;;;;;;;;;;;;;19.52;72.20;97400.06;545627;260;68642;-72
2022/09/24 07:14:56;;;;;;;;;;;;;;;19.51;70.68;97397.66;545625;260;68781;-72
2022/09/24 07:17:25;;;;;;;;;;;;;;;19.52;72.18;97393.93;545729;259;65157;-72
2022/09/24 07:19:52;;;;;;;;;;;;;;;19.52;71.87;97394.73;545755;257;68957;-75
2022/09/24 07:22:21;;;;;;;;;;;;;;;19.52;71.83;97388.59;545687;259;68758;-74
2022/09/24 07:24:49;;;;;;;;;;;;;;;19.52;71.84;97397.39;545625;260;64984;-74
2022/09/24 07:27:20;;;;;;;;;;;;;;;19.51;70.52;97395.00;545639;260;69059;-73
2022/09/24 07:29:46;;;;;;;;;;;;;;;19.51;71.49;97393.13;545648;260;68695;-72
2022/09/24 07:32:16;;;;;;;;;;;;;;;19.50;71.09;97383.50;545658;260;65139;-72
2022/09/24 07:34:44;;;;;;;;;;;;;;;19.52;72.49;97392.06;545674;260;68952;-72
2022/09/24 07:37:12;;;;;;;;;;;;;;;19.52;71.20;97388.59;545635;260;66630;-71
2022/09/24 07:39:39;;;;;;;;;;;;;;;19.51;70.33;97384.33;545640;260;65097;-71
2022/09/24 07:42:07;;;;;;;;;;;;;;;19.52;73.11;97393.93;545621;257;66871;-71
2022/09/24 07:44:35;;;;;;;;;;;;;;;19.51;69.89;97381.67;545632;260;68867;-71
2022/09/24 07:47:02;;;;;;;;;;;;;;;19.50;70.89;97380.84;545649;260;63051;-71
2022/09/24 07:49:31;;;;;;;;;;;;;;;19.51;69.33;97384.33;545658;260;68872;-71
2022/09/24 07:52:00;;;;;;;;;;;;;;;19.50;70.46;97386.17;545639;260;68818;-72
2022/09/24 07:54:29;;;;;;;;;;;;;;;19.51;69.86;97381.67;545666;260;63073;-73
2022/09/24 07:56:56;;;;;;;;;;;;;;;19.50;69.89;97380.84;545631;260;68850;-73
2022/09/24 07:59:24;;;;;;;;;;;;;;;19.52;71.83;97380.59;545671;257;68249;-73
2022/09/24 08:01:52;;;;;;;;;;;;;;;19.51;72.37;97379.00;545626;257;63213;-73
2022/09/24 08:04:20;;;;;;;;;;;;;;;19.51;71.04;97379.00;545652;260;69138;-73
2022/09/24 08:06:47;;;;;;;;;;;;;;;19.50;69.91;97380.04;545616;260;69114;-73
2022/09/24 08:09:20;;;;;;;;;;;;;;;19.50;70.31;97378.17;545598;257;62831;-73
2022/09/24 08:11:45;;;;;;;;;;;;;;;19.50;69.04;97380.84;545578;260;66461;-72
2022/09/24 08:14:12;;;;;;;;;;;;;;;19.50;70.55;97377.38;545634;260;68801;-72
2022/09/24 08:16:40;;;;;;;;;;;;;;;19.50;71.82;97372.84;545635;260;62986;-72
2022/09/24 08:19:12;;;;;;;;;;;;;;;19.50;70.67;97375.51;545647;257;68891;-72
2022/09/24 08:21:38;;;;;;;;;;;;;;;19.50;70.58;97378.17;545573;260;66521;-72
2022/09/24 08:24:05;;;;;;;;;;;;;;;19.50;72.16;97380.84;545666;260;62800;-72
2022/09/24 08:26:33;;;;;;;;;;;;;;;19.50;71.21;97372.05;545639;260;66414;-72
2022/09/24 08:29:03;;;;;;;;;;;;;;;19.49;70.86;97373.11;545636;260;68858;-72
2022/09/24 08:31:32;;;;;;;;;;;;;;;19.48;69.05;97358.19;545619;256;65348;-72
2022/09/24 08:33:59;;;;;;;;;;;;;;;19.49;69.91;97365.11;545653;260;67026;-72
2022/09/24 08:36:27;;;;;;;;;;;;;;;19.49;70.81;97365.91;545641;260;68816;-72
2022/09/24 08:38:54;;;;;;;;;;;;;;;19.50;70.68;97370.17;545671;260;63045;-72
2022/09/24 08:41:26;;;;;;;;;;;;;;;19.48;69.35;97377.64;545631;260;66878;-72
2022/09/24 08:43:59;;;;;;;;;;;;;;;19.50;70.39;97377.38;545613;260;67676;-72
2022/09/24 08:49:25;;;;;;;;;;;;;;;19.49;69.60;97370.45;545762;260;50559;-74
2022/09/24 08:52:06;;;;;;;;;;;;;;;19.49;71.31;97376.58;545531;260;67806;-74
2022/09/24 08:54:35;;;;;;;;;;;;;;;19.49;70.36;97371.25;545669;260;65376;-74
2022/09/24 08:57:04;;;;;;;;;;;;;;;19.49;69.52;97379.24;545633;260;68994;-74
2022/09/24 08:59:36;;;;;;;;;;;;;;;19.49;70.52;97376.58;545604;260;66722;-73
2022/09/24 09:02:04;;;;;;;;;;;;;;;19.48;69.75;97374.98;545696;257;65177;-73
2022/09/24 09:04:33;;;;;;;;;;;;;;;19.48;70.42;97376.84;545439;259;68932;-73
2022/09/24 09:07:02;;;;;;;;;;;;;;;19.49;70.52;97378.44;545711;259;68838;-73
2022/09/24 09:09:40;;;;;;;;;;;;;;;19.48;69.87;97384.84;545652;259;63202;-73
2022/09/24 09:12:08;;;;;;;;;;;;;;;19.48;70.68;97368.84;545801;260;68924;-73
2022/09/24 09:14:37;;;;;;;;;;;;;;;19.48;72.09;97371.52;545725;260;68218;-73
2022/09/24 09:17:06;;;;;;;;;;;;;;;19.48;71.24;97374.18;545738;260;65153;-73
2022/09/24 09:19:34;;;;;;;;;;;;;;;19.47;70.59;97370.69;545653;260;66505;-73
2022/09/24 09:22:06;;;;;;;;;;;;;;;19.47;69.52;97364.55;545718;257;66868;-73
2022/09/24 09:24:50;;;;;;;;;;;;;;;19.47;70.15;97361.89;545718;260;63039;-73
2022/09/24 09:27:18;;;;;;;;;;;;;;;19.47;69.56;97360.02;545771;260;66390;-73
2022/09/24 09:29:49;;;;;;;;;;;;;;;19.48;71.85;97360.85;545769;260;66632;-73
2022/09/24 09:32:27;;;;;;;;;;;;;;;19.46;68.89;97361.09;545777;260;65118;-73
2022/09/24 09:34:57;;;;;;;;;;;;;;;19.47;69.35;97359.22;545779;256;68583;-73
2022/09/24 09:37:27;;;;;;;;;;;;;;;19.46;69.84;97363.75;545725;260;66775;-73
2022/09/24 09:39:56;;;;;;;;;;;;;;;19.46;71.25;97349.63;545810;260;65122;-73
2022/09/24 09:42:25;;;;;;;;;;;;;;;19.46;69.57;97347.77;545705;259;68539;-73
2022/09/24 09:44:53;;;;;;;;;;;;;;;19.46;70.80;97350.42;545774;260;66839;-73
2022/09/24 09:47:25;;;;;;;;;;;;;;;19.46;72.21;97342.44;545757;260;65218;-73
2022/09/24 09:49:55;;;;;;;;;;;;;;;19.46;72.95;97336.30;545586;260;66978;-73
2022/09/24 09:52:24;;;;;;;;;;;;;;;19.46;70.95;97338.97;545774;260;66527;-73
2022/09/24 09:54:51;;;;;;;;;;;;;;;19.45;69.60;97338.17;545789;260;62953;-73
2022/09/24 09:57:23;;;;;;;;;;;;;;;19.44;69.17;97341.08;545751;260;66844;-73
2022/09/24 09:59:53;;;;;;;;;;;;;;;19.46;72.26;97345.09;545763;260;68924;-73
2022/09/24 10:02:34;;;;;;;;;;;;;;;19.46;72.54;97342.44;545744;260;63210;-73
2022/09/24 10:05:02;;;;;;;;;;;;;;;19.45;70.30;97342.67;545791;260;66744;-73
2022/09/24 10:07:30;;;;;;;;;;;;;;;19.44;69.51;97341.87;545730;259;68797;-73
2022/09/24 10:10:02;;;;;;;;;;;;;;;19.45;70.49;97340.00;546765;259;63063;-73
2022/09/24 10:12:30;;;;;;;;;;;;;;;19.45;70.42;97334.67;545849;260;66866;-73
2022/09/24 10:14:59;;;;;;;;;;;;;;;19.44;70.06;97341.87;545771;260;68590;-73
2022/09/24 10:17:30;;;;;;;;;;;;;;;19.45;71.40;97329.34;545741;256;65120;-73
2022/09/24 10:20:00;;;;;;;;;;;;;;;19.45;71.09;97342.67;545715;260;66500;-73
2022/09/24 10:22:28;;;;;;;;;;;;;;;19.45;71.28;97335.50;545728;260;68729;-74
2022/09/24 10:24:57;;;;;;;;;;;;;;;19.44;70.34;97330.41;545762;257;63219;-74
2022/09/24 10:27:37;;;;;;;;;;;;;;;19.44;69.86;97335.74;547170;259;66836;-74
2022/09/24 10:32:58;;;;;;;;;;;;;;;19.43;70.89;97329.61;548044;259;65217;-75
2022/09/24 10:35:27;;;;;;;;;;;;;;;19.44;72.07;97314.42;548087;259;66703;-75
2022/09/24 10:37:56;;;;;;;;;;;;;;;19.44;70.98;97309.09;548017;259;69139;-73
2022/09/24 10:40:27;;;;;;;;;;;;;;;19.44;70.93;97303.77;548092;259;65204;-73
2022/09/24 10:42:56;;;;;;;;;;;;;;;19.43;70.43;97299.50;547167;259;69164;-75
2022/09/24 10:45:25;;;;;;;;;;;;;;;19.42;67.77;97285.34;547171;259;66965;-75
2022/09/24 10:47:53;;;;;;;;;;;;;;;19.43;69.43;97294.16;548000;258;62856;-74
2022/09/24 10:50:42;;;;;;;;;;;;;;;19.44;70.87;97288.56;545759;258;66807;-74
2022/09/24 10:53:18;;;;;;;;;;;;;;;19.44;70.83;97287.77;545754;260;66641;-74
2022/09/24 10:55:47;;;;;;;;;;;;;;;19.43;69.79;97280.84;545657;260;63122;-74
2022/09/24 10:58:28;;;;;;;;;;;;;;;19.43;70.97;97270.98;545767;260;66478;-74
2022/09/24 11:01:06;;;;;;;;;;;;;;;19.42;69.76;97264.02;545491;260;68798;-75
2022/09/24 11:03:38;;;;;;;;;;;;;;;19.43;69.72;97275.52;545602;260;65375;-74
2022/09/24 11:06:07;;;;;;;;;;;;;;;19.43;69.46;97270.18;545593;260;66720;-74
2022/09/24 11:08:36;;;;;;;;;;;;;;;19.42;69.58;97272.02;545234;259;68894;-75
2022/09/24 11:11:05;;;;;;;;;;;;;;;19.43;69.49;97272.84;545381;260;65134;-74
2022/09/24 11:13:34;;;;;;;;;;;;;;;19.43;68.96;97272.84;545663;260;69092;-75
2022/09/24 11:16:09;;;;;;;;;;;;;;;19.43;69.29;97262.19;545624;256;68593;-75
2022/09/24 11:18:38;;;;;;;;;;;;;;;19.42;69.30;97264.02;545509;257;64030;-74
2022/09/24 11:21:16;;;;;;;;;;;;;;;19.43;69.12;97262.19;545488;260;66972;-75
2022/09/24 11:23:48;;;;;;;;;;;;;;;19.44;70.03;97258.45;545573;260;66586;-74
2022/09/24 11:26:17;;;;;;;;;;;;;;;19.43;69.58;97262.19;545659;259;63038;-74
2022/09/24 11:28:46;;;;;;;;;;;;;;;19.43;70.57;97256.85;545745;260;67754;-75
2022/09/24 11:31:34;;;;;;;;;;;;;;;19.43;70.41;97251.52;545355;256;66644;-75
2022/09/24 11:34:12;;;;;;;;;;;;;;;19.42;69.90;97256.03;545760;260;63036;-75
2022/09/24 11:36:57;;;;;;;;;;;;;;;19.41;68.83;97254.43;545774;260;66525;-74
2022/09/24 11:39:32;;;;;;;;;;;;;;;19.42;70.28;97257.89;545787;260;66790;-74
2022/09/24 11:42:02;;;;;;;;;;;;;;;19.43;69.98;97256.85;545576;260;63915;-74
2022/09/24 11:44:37;;;;;;;;;;;;;;;19.42;69.51;97261.36;545593;257;68919;-74
2022/09/24 11:47:06;;;;;;;;;;;;;;;19.43;69.22;97275.52;545769;260;66366;-75
2022/09/24 11:49:47;;;;;;;;;;;;;;;19.42;67.29;97279.21;545756;256;63137;-75
2022/09/24 11:52:25;;;;;;;;;;;;;;;19.42;68.52;97269.35;545760;260;68863;-74
2022/09/24 11:54:58;;;;;;;;;;;;;;;19.42;68.19;97257.89;545578;260;69046;-75
2022/09/24 11:57:27;;;;;;;;;;;;;;;19.41;69.09;97267.75;543689;260;65444;-74
2022/09/24 12:00:05;;;;;;;;;;;;;;;19.42;68.43;97269.35;545760;260;68871;-73
2022/09/24 12:02:41;;;;;;;;;;;;;;;19.41;68.72;97266.95;545767;259;50068;-73
2022/09/24 12:05:18;;;;;;;;;;;;;;;19.42;68.68;97263.22;541999;257;63158;-73
2022/09/24 12:07:47;;;;;;;;;;;;;;;19.42;68.86;97265.89;545716;258;69001;-73
2022/09/24 12:10:16;;;;;;;;;;;;;;;19.42;68.22;97268.55;545761;259;68778;-73
2022/09/24 12:12:45;;;;;;;;;;;;;;;19.42;68.60;97263.22;545704;259;62842;-73
2022/09/24 12:15:21;;;;;;;;;;;;;;;19.41;68.82;97273.08;545672;259;68637;-72
2022/09/24 12:18:01;;;;;;;;;;;;;;;19.42;68.31;97264.02;545639;259;68835;-74
2022/09/24 12:20:27;;;;;;;;;;;;;;;19.42;68.25;97268.55;545430;259;65116;-74
2022/09/24 12:22:58;;;;;;;;;;;;;;;19.42;68.08;97268.55;545477;259;69357;-74
2022/09/24 12:25:26;;;;;;;;;;;;;;;19.42;68.69;97271.22;545610;259;68853;-74
2022/09/24 12:27:54;;;;;;;;;;;;;;;19.41;67.27;97267.75;545686;259;65127;-75
2022/09/24 12:33:19;;;;;;;;;;;;;;;19.41;68.52;97270.42;545644;259;68792;-74
2022/09/24 12:36:07;;;;;;;;;;;;;;;19.40;68.45;97260.83;545693;259;62874;-74
2022/09/24 12:38:42;;;;;;;;;;;;;;;19.40;67.83;97252.03;545661;259;66791;-74
2022/09/24 12:41:17;;;;;;;;;;;;;;;19.41;68.16;97258.96;545623;257;68805;-74
2022/09/24 12:43:49;;;;;;;;;;;;;;;19.40;67.80;97258.16;545629;257;65236;-74
2022/09/24 12:46:24;;;;;;;;;;;;;;;19.40;68.50;97252.83;545648;259;66336;-74
2022/09/24 12:48:53;;;;;;;;;;;;;;;19.40;68.25;97255.50;539988;259;66848;-74
2022/09/24 12:51:25;;;;;;;;;;;;;;;19.39;68.98;97251.20;545644;257;65326;-74
2022/09/24 12:53:57;;;;;;;;;;;;;;;19.40;68.64;97252.03;545577;259;68908;-74
2022/09/24 12:56:29;;;;;;;;;;;;;;;19.40;67.66;97249.37;545605;260;68874;-74
2022/09/24 12:58:57;;;;;;;;;;;;;;;19.41;68.32;97257.09;545665;259;63139;-75
2022/09/24 13:01:27;;;;;;;;;;;;;;;19.40;68.30;97252.03;543756;259;68878;-74
2022/09/24 13:04:01;;;;;;;;;;;;;;;19.39;68.05;97248.55;545772;260;68512;-75
2022/09/24 13:06:36;;;;;;;;;;;;;;;19.40;68.57;97249.37;545772;260;65174;-74
2022/09/24 13:09:05;;;;;;;;;;;;;;;19.40;68.98;97244.04;545648;259;69098;-74
2022/09/24 13:11:39;;;;;;;;;;;;;;;19.40;68.74;97239.51;544949;256;69382;-74
2022/09/24 13:14:05;;;;;;;;;;;;;;;19.40;68.66;97236.05;545739;257;65148;-74
2022/09/24 13:16:34;;;;;;;;;;;;;;;19.39;69.55;97237.08;545062;260;68969;-74
2022/09/24 13:19:04;;;;;;;;;;;;;;;19.40;68.91;97233.38;545617;259;68816;-74